createdAt,value
2018-08-19T19:21:11.546Z,1012.13
2018-08-19T19:22:11.532Z,1012.16
2018-08-19T19:23:11.544Z,1012.17
2018-08-19T19:24:11.568Z,1012.18
2018-08-19T19:25:11.545Z,1012.16
2018-08-19T19:26:11.554Z,1012.19
2018-08-19T19:27:11.559Z,1012.20
2018-08-19T19:28:11.629Z,1012.18
2018-08-19T19:29:11.573Z,1012.16
2018-08-19T19:30:11.575Z,1012.20
2018-08-19T19:31:11.589Z,1012.18
2018-08-19T19:32:11.586Z,1012.18
2018-08-19T19:33:11.601Z,1012.15
2018-08-19T19:34:11.655Z,1012.17
2018-08-19T19:35:11.609Z,1012.16
2018-08-19T19:36:11.610Z,1012.18
2018-08-19T19:37:11.626Z,1012.12
2018-08-19T19:38:11.626Z,1012.10
2018-08-19T19:39:11.632Z,1012.10
2018-08-19T19:40:11.642Z,1012.09
2018-08-19T19:41:11.644Z,1012.09
2018-08-19T19:42:11.649Z,1012.09
2018-08-19T19:43:11.660Z,1012.10
2018-08-19T19:44:11.662Z,1012.11
2018-08-19T19:45:11.674Z,1012.09
2018-08-19T19:46:11.674Z,1012.12
2018-08-19T19:47:11.691Z,1012.11
2018-08-19T19:48:11.694Z,1012.11
2018-08-19T19:49:11.694Z,1012.07
2018-08-19T19:50:11.705Z,1012.07
2018-08-19T19:51:11.705Z,1012.09
2018-08-19T19:52:11.729Z,1012.08
2018-08-19T19:53:11.718Z,1012.09
2018-08-19T19:54:11.734Z,1012.10
2018-08-19T19:55:11.730Z,1012.11
2018-08-19T19:56:11.856Z,1012.08
2018-08-19T19:57:11.800Z,1012.07
2018-08-19T19:58:11.747Z,1012.07
2018-08-19T19:59:11.758Z,1012.02
2018-08-19T20:00:11.782Z,1012.05
2018-08-19T20:01:11.767Z,1012.03
2018-08-19T20:02:11.779Z,1012.03
2018-08-19T20:03:11.778Z,1012.01
2018-08-19T20:04:11.785Z,1012.02
2018-08-19T20:05:11.797Z,1012.05
2018-08-19T20:06:11.799Z,1012.03
2018-08-19T20:07:11.810Z,1012.03
2018-08-19T20:08:11.809Z,1011.99
2018-08-19T20:09:11.820Z,1011.98
2018-08-19T20:10:11.823Z,1012.00
2018-08-19T20:11:11.832Z,1012.00
2018-08-19T20:12:11.833Z,1012.02
2018-08-19T20:13:11.839Z,1012.02
2018-08-19T20:14:11.850Z,1012.05
2018-08-19T20:15:11.852Z,1012.07
2018-08-19T20:16:11.856Z,1012.03
2018-08-19T20:17:11.868Z,1012.04
2018-08-19T20:18:11.871Z,1012.04
2018-08-19T20:19:11.876Z,1011.99
2018-08-19T20:20:11.888Z,1011.99
2018-08-19T20:21:11.887Z,1012.01
2018-08-19T20:22:11.894Z,1012.03
2018-08-19T20:23:11.902Z,1012.06
2018-08-19T20:24:11.906Z,1012.02
2018-08-19T20:25:11.918Z,1012.04
2018-08-19T20:26:11.944Z,1012.01
2018-08-19T20:27:11.923Z,1012.04
2018-08-19T20:28:11.948Z,1012.03
2018-08-19T20:29:11.938Z,1012.04
2018-08-19T20:30:11.941Z,1012.04
2018-08-19T20:31:11.956Z,1012.02
2018-08-19T20:32:11.960Z,1012.04
2018-08-19T20:33:12.027Z,1012.04
2018-08-19T20:34:12.015Z,1012.08
2018-08-19T20:35:11.977Z,1012.06
2018-08-19T20:36:11.978Z,1012.08
2018-08-19T20:37:11.991Z,1012.07
2018-08-19T20:38:11.996Z,1012.07
2018-08-19T20:39:12.005Z,1012.05
2018-08-19T20:40:12.007Z,1012.05
2018-08-19T20:41:12.012Z,1012.08
2018-08-19T20:42:12.020Z,1012.09
2018-08-19T20:43:12.036Z,1012.12
2018-08-19T20:44:12.036Z,1012.09
2018-08-19T20:45:12.039Z,1012.10
2018-08-19T20:46:12.048Z,1012.07
2018-08-19T20:47:12.059Z,1012.09
2018-08-19T20:48:12.052Z,1012.10
2018-08-19T20:49:12.074Z,1012.13
2018-08-19T20:50:12.184Z,1012.09
2018-08-19T20:51:12.081Z,1012.11
2018-08-19T20:52:12.084Z,1012.11
2018-08-19T20:53:12.086Z,1012.13
2018-08-19T20:54:12.101Z,1012.13
2018-08-19T20:55:12.097Z,1012.11
2018-08-19T20:56:12.112Z,1012.12
2018-08-19T20:57:12.114Z,1012.13
2018-08-19T20:58:12.121Z,1012.12
2018-08-19T20:59:12.122Z,1012.13
2018-08-19T21:00:12.128Z,1012.10
2018-08-19T21:01:12.141Z,1012.12
2018-08-19T21:02:12.140Z,1012.12
2018-08-19T21:03:12.146Z,1012.14
2018-08-19T21:04:12.159Z,1012.16
2018-08-19T21:05:12.261Z,1012.16
2018-08-19T21:06:12.172Z,1012.20
2018-08-19T21:07:12.174Z,1012.19
2018-08-19T21:08:12.174Z,1012.16
2018-08-19T21:09:12.189Z,1012.17
2018-08-19T21:10:12.188Z,1012.20
2018-08-19T21:11:12.201Z,1012.15
2018-08-19T21:12:12.205Z,1012.20
2018-08-19T21:13:12.209Z,1012.15
2018-08-19T21:14:12.213Z,1012.19
2018-08-19T21:15:12.225Z,1012.17
2018-08-19T21:16:12.231Z,1012.24
2018-08-19T21:17:12.237Z,1012.23
2018-08-19T21:18:12.246Z,1012.20
2018-08-19T21:19:12.247Z,1012.20
2018-08-19T21:20:12.249Z,1012.24
2018-08-19T21:21:12.262Z,1012.22
2018-08-19T21:22:12.264Z,1012.24
2018-08-19T21:23:12.274Z,1012.23
2018-08-19T21:24:12.278Z,1012.24
2018-08-19T21:25:12.280Z,1012.29
2018-08-19T21:26:12.293Z,1012.28
2018-08-19T21:27:12.293Z,1012.33
2018-08-19T21:28:12.301Z,1012.28
2018-08-19T21:29:12.311Z,1012.33
2018-08-19T21:30:12.397Z,1012.34
2018-08-19T21:31:12.326Z,1012.32
2018-08-19T21:32:12.322Z,1012.29
2018-08-19T21:33:12.331Z,1012.30
2018-08-19T21:34:12.341Z,1012.31
2018-08-19T21:35:12.340Z,1012.30
2018-08-19T21:36:12.347Z,1012.32
2018-08-19T21:37:12.359Z,1012.31
2018-08-19T21:38:12.374Z,1012.30
2018-08-19T21:39:12.365Z,1012.30
2018-08-19T21:40:12.377Z,1012.32
2018-08-19T21:41:12.376Z,1012.34
2018-08-19T21:42:12.382Z,1012.34
2018-08-19T21:43:12.391Z,1012.32
2018-08-19T21:44:12.396Z,1012.36
2018-08-19T21:45:12.404Z,1012.37
2018-08-19T21:46:12.406Z,1012.34
2018-08-19T21:47:12.412Z,1012.35
2018-08-19T21:48:12.419Z,1012.34
2018-08-19T21:49:12.426Z,1012.33
2018-08-19T21:50:12.428Z,1012.32
2018-08-19T21:51:12.441Z,1012.34
2018-08-19T21:52:12.449Z,1012.31
2018-08-19T21:53:12.452Z,1012.32
2018-08-19T21:54:12.458Z,1012.33
2018-08-19T21:55:13.039Z,1012.25
2018-08-19T21:56:12.465Z,1012.27
2018-08-19T21:57:12.479Z,1012.31
2018-08-19T21:58:12.485Z,1012.29
2018-08-19T21:59:12.490Z,1012.28
2018-08-19T22:00:12.493Z,1012.29
2018-08-19T22:01:12.497Z,1012.25
2018-08-19T22:02:12.504Z,1012.28
2018-08-19T22:03:12.514Z,1012.31
2018-08-19T22:04:12.514Z,1012.31
2018-08-19T22:05:12.524Z,1012.29
2018-08-19T22:06:12.531Z,1012.31
2018-08-19T22:07:12.551Z,1012.29
2018-08-19T22:08:12.538Z,1012.27
2018-08-19T22:09:12.550Z,1012.28
2018-08-19T22:10:12.557Z,1012.22
2018-08-19T22:11:12.560Z,1012.25
2018-08-19T22:12:12.576Z,1012.20
2018-08-19T22:13:12.567Z,1012.22
2018-08-19T22:14:12.573Z,1012.22
2018-08-19T22:15:12.584Z,1012.25
2018-08-19T22:16:12.587Z,1012.25
2018-08-19T22:17:12.595Z,1012.27
2018-08-19T22:18:12.602Z,1012.25
2018-08-19T22:19:12.634Z,1012.23
2018-08-19T22:20:12.614Z,1012.25
2018-08-19T22:21:12.615Z,1012.27
2018-08-19T22:22:12.620Z,1012.27
2018-08-19T22:23:12.632Z,1012.24
2018-08-19T22:24:12.634Z,1012.28
2018-08-19T22:25:12.643Z,1012.28
2018-08-19T22:26:12.644Z,1012.25
2018-08-19T22:27:12.654Z,1012.26
2018-08-19T22:28:12.661Z,1012.27
2018-08-19T22:29:12.663Z,1012.24
2018-08-19T22:30:12.672Z,1012.23
2018-08-19T22:31:12.675Z,1012.24
2018-08-19T22:32:12.683Z,1012.22
2018-08-19T22:33:12.692Z,1012.21
2018-08-19T22:34:12.691Z,1012.24
2018-08-19T22:35:12.699Z,1012.22
2018-08-19T22:36:12.704Z,1012.21
2018-08-19T22:37:12.708Z,1012.21
2018-08-19T22:38:12.722Z,1012.21
2018-08-19T22:39:12.725Z,1012.18
2018-08-19T22:40:12.787Z,1012.19
2018-08-19T22:41:12.740Z,1012.20
2018-08-19T22:42:12.743Z,1012.23
2018-08-19T22:43:12.744Z,1012.22
2018-08-19T22:44:12.756Z,1012.21
2018-08-19T22:45:12.757Z,1012.24
2018-08-19T22:46:12.765Z,1012.22
2018-08-19T22:47:12.784Z,1012.21
2018-08-19T22:48:12.780Z,1012.22
2018-08-19T22:49:12.781Z,1012.22
2018-08-19T22:50:12.791Z,1012.21
2018-08-19T22:51:12.795Z,1012.19
2018-08-19T22:52:12.801Z,1012.18
2018-08-19T22:53:12.811Z,1012.17
2018-08-19T22:54:12.811Z,1012.16
2018-08-19T22:55:12.815Z,1012.16
2018-08-19T22:56:12.826Z,1012.18
2018-08-19T22:57:12.839Z,1012.24
2018-08-19T22:58:12.831Z,1012.20
2018-08-19T22:59:12.842Z,1012.18
2018-08-19T23:00:12.848Z,1012.22
2018-08-19T23:01:12.857Z,1012.22
2018-08-19T23:02:12.859Z,1012.22
2018-08-19T23:03:12.863Z,1012.22
2018-08-19T23:04:12.870Z,1012.23
2018-08-19T23:05:12.882Z,1012.22
2018-08-19T23:06:12.890Z,1012.20
2018-08-19T23:07:12.892Z,1012.23
2018-08-19T23:08:12.896Z,1012.20
2018-08-19T23:09:12.893Z,1012.25
2018-08-19T23:10:12.909Z,1012.24
2018-08-19T23:11:12.909Z,1012.25
2018-08-19T23:12:12.915Z,1012.24
2018-08-19T23:13:12.926Z,1012.24
2018-08-19T23:14:12.927Z,1012.29
2018-08-19T23:15:12.932Z,1012.28
2018-08-19T23:16:12.947Z,1012.27
2018-08-19T23:17:12.943Z,1012.34
2018-08-19T23:18:12.951Z,1012.31
2018-08-19T23:19:12.960Z,1012.30
2018-08-19T23:20:12.967Z,1012.30
2018-08-19T23:21:12.966Z,1012.35
2018-08-19T23:22:12.976Z,1012.29
2018-08-19T23:23:12.984Z,1012.27
2018-08-19T23:24:12.983Z,1012.31
2018-08-19T23:25:12.998Z,1012.30
2018-08-19T23:26:13.001Z,1012.26
2018-08-19T23:27:13.001Z,1012.26
2018-08-19T23:28:13.011Z,1012.26
2018-08-19T23:29:13.024Z,1012.29
2018-08-19T23:30:13.025Z,1012.28
2018-08-19T23:31:13.028Z,1012.28
2018-08-19T23:32:13.036Z,1012.26
2018-08-19T23:33:13.038Z,1012.29
2018-08-19T23:34:13.044Z,1012.22
2018-08-19T23:35:13.049Z,1012.19
2018-08-19T23:36:13.055Z,1012.24
2018-08-19T23:37:13.070Z,1012.21
2018-08-19T23:38:13.068Z,1012.24
2018-08-19T23:39:13.077Z,1012.24
2018-08-19T23:40:13.077Z,1012.22
2018-08-19T23:41:13.082Z,1012.20
2018-08-19T23:42:13.095Z,1012.22
2018-08-19T23:43:13.092Z,1012.29
2018-08-19T23:44:13.103Z,1012.30
2018-08-19T23:45:13.108Z,1012.36
2018-08-19T23:46:13.118Z,1012.31
2018-08-19T23:47:13.117Z,1012.29
2018-08-19T23:48:13.124Z,1012.31
2018-08-19T23:49:13.132Z,1012.31
2018-08-19T23:50:13.138Z,1012.31
2018-08-19T23:51:13.146Z,1012.29
2018-08-19T23:52:13.153Z,1012.29
2018-08-19T23:53:13.151Z,1012.33
2018-08-19T23:54:13.158Z,1012.27
2018-08-19T23:55:13.166Z,1012.32
2018-08-19T23:56:13.174Z,1012.32
2018-08-19T23:57:13.187Z,1012.36
2018-08-19T23:58:13.180Z,1012.34
2018-08-19T23:59:13.193Z,1012.33
